Glen, Nebraska
Current Conditions -  °F | °C
As of 7:53 PM on Saturday 25 Oct 2014 (Local Time) from KCDR Reporting Station
Clear Clear  
Wind Chill: 60°   Ceiling: Unl
Heat Index: 60°   Visibility: 10mi
Dew Point: 38°   Wind: 5mph
Humidity: 44%   Direction: 180°S
Pressure: 29.91"   Gusts: NA
Location:  42.7426°N, 103.391°W
Report Text: KCDR 260153Z AUTO 18004KT 10SM CLR 16/03 A2991 RMK AO2 SLP140 T01560033
Loading
Personal Weather Stations






























Interactive Weather Map
Tropical Storm Tracking
New forecast layout! Learn more

10-Day Weather Forecast

Advertisements
Track Severe Weather on mobile